sensor_id;sensor_type;location;lat;lon;timestamp;temperature;humidity
8408;DHT22;4241;48.452;9.216;2022-12-18T00:04:43;-8.50;99.90
8408;DHT22;4241;48.452;9.216;2022-12-18T00:07:11;-8.60;99.90
8408;DHT22;4241;48.452;9.216;2022-12-18T00:09:38;-8.50;99.90
8408;DHT22;4241;48.452;9.216;2022-12-18T00:16:59;-8.60;99.90
8408;DHT22;4241;48.452;9.216;2022-12-18T00:21:53;-8.50;99.90
8408;DHT22;4241;48.452;9.216;2022-12-18T00:24:22;-8.30;99.90
8408;DHT22;4241;48.452;9.216;2022-12-18T00:29:15;-8.30;99.90
8408;DHT22;4241;48.452;9.216;2022-12-18T00:31:42;-8.20;99.90
8408;DHT22;4241;48.452;9.216;2022-12-18T00:34:11;-8.20;99.90
8408;DHT22;4241;48.452;9.216;2022-12-18T00:39:05;-8.30;99.90
8408;DHT22;4241;48.452;9.216;2022-12-18T00:41:34;-8.30;99.90
8408;DHT22;4241;48.452;9.216;2022-12-18T00:44:18;-8.30;99.90
8408;DHT22;4241;48.452;9.216;2022-12-18T00:46:46;-8.40;99.90
8408;DHT22;4241;48.452;9.216;2022-12-18T00:49:14;-8.30;99.90
8408;DHT22;4241;48.452;9.216;2022-12-18T00:51:41;-8.30;99.90
8408;DHT22;4241;48.452;9.216;2022-12-18T00:54:08;-8.30;99.90
8408;DHT22;4241;48.452;9.216;2022-12-18T00:56:37;-8.30;99.90
8408;DHT22;4241;48.452;9.216;2022-12-18T01:01:31;-8.30;99.90
8408;DHT22;4241;48.452;9.216;2022-12-18T01:03:59;-8.30;99.90
8408;DHT22;4241;48.452;9.216;2022-12-18T01:11:21;-8.50;99.90
8408;DHT22;4241;48.452;9.216;2022-12-18T01:13:51;-8.30;99.90
8408;DHT22;4241;48.452;9.216;2022-12-18T01:16:19;-8.30;99.90
8408;DHT22;4241;48.452;9.216;2022-12-18T01:18:46;-8.40;99.90
8408;DHT22;4241;48.452;9.216;2022-12-18T01:21:16;-8.20;99.90
8408;DHT22;4241;48.452;9.216;2022-12-18T01:23:50;-8.20;99.90
8408;DHT22;4241;48.452;9.216;2022-12-18T01:28:44;-8.10;99.90
8408;DHT22;4241;48.452;9.216;2022-12-18T01:31:15;-8.10;99.90
8408;DHT22;4241;48.452;9.216;2022-12-18T01:33:42;-8.00;99.90
8408;DHT22;4241;48.452;9.216;2022-12-18T01:36:15;-8.00;99.90
8408;DHT22;4241;48.452;9.216;2022-12-18T01:43:48;-8.00;99.90
8408;DHT22;4241;48.452;9.216;2022-12-18T01:46:18;-8.10;99.90
8408;DHT22;4241;48.452;9.216;2022-12-18T01:48:48;-8.20;99.90
8408;DHT22;4241;48.452;9.216;2022-12-18T01:51:16;-8.30;99.90
8408;DHT22;4241;48.452;9.216;2022-12-18T01:53:44;-8.40;99.90
8408;DHT22;4241;48.452;9.216;2022-12-18T01:56:16;-8.40;99.90
8408;DHT22;4241;48.452;9.216;2022-12-18T01:58:52;-8.30;99.90
8408;DHT22;4241;48.452;9.216;2022-12-18T02:01:22;-8.20;99.90
8408;DHT22;4241;48.452;9.216;2022-12-18T02:06:20;-8.00;99.90
8408;DHT22;4241;48.452;9.216;2022-12-18T02:08:55;-7.90;99.90
8408;DHT22;4241;48.452;9.216;2022-12-18T02:11:33;-7.90;99.90
8408;DHT22;4241;48.452;9.216;2022-12-18T02:14:14;-8.10;99.90
8408;DHT22;4241;48.452;9.216;2022-12-18T02:16:49;-7.80;99.90
8408;DHT22;4241;48.452;9.216;2022-12-18T02:22:24;-7.80;99.90
8408;DHT22;4241;48.452;9.216;2022-12-18T02:25:00;-7.90;99.90
8408;DHT22;4241;48.452;9.216;2022-12-18T02:27:34;-8.10;99.90
8408;DHT22;4241;48.452;9.216;2022-12-18T02:30:02;-8.00;99.90
8408;DHT22;4241;48.452;9.216;2022-12-18T02:32:32;-8.00;99.90
8408;DHT22;4241;48.452;9.216;2022-12-18T02:35:03;-7.90;99.90
8408;DHT22;4241;48.452;9.216;2022-12-18T02:37:32;-7.90;99.90
8408;DHT22;4241;48.452;9.216;2022-12-18T02:40:00;-7.90;99.90
8408;DHT22;4241;48.452;9.216;2022-12-18T02:44:57;-7.80;99.90
8408;DHT22;4241;48.452;9.216;2022-12-18T02:47:27;-7.70;99.90
8408;DHT22;4241;48.452;9.216;2022-12-18T02:50:02;-7.70;99.90
8408;DHT22;4241;48.452;9.216;2022-12-18T02:52:36;-7.70;99.90
8408;DHT22;4241;48.452;9.216;2022-12-18T02:55:14;-7.70;99.90
8408;DHT22;4241;48.452;9.216;2022-12-18T02:57:46;-7.60;99.90
8408;DHT22;4241;48.452;9.216;2022-12-18T03:00:19;-7.60;99.90
8408;DHT22;4241;48.452;9.216;2022-12-18T03:02:51;-7.90;99.90
8408;DHT22;4241;48.452;9.216;2022-12-18T03:05:22;-7.50;99.90
8408;DHT22;4241;48.452;9.216;2022-12-18T03:07:55;-7.50;99.90
8408;DHT22;4241;48.452;9.216;2022-12-18T03:10:26;-7.50;99.90
8408;DHT22;4241;48.452;9.216;2022-12-18T03:12:58;-7.60;99.90
8408;DHT22;4241;48.452;9.216;2022-12-18T03:15:30;-7.60;99.90
8408;DHT22;4241;48.452;9.216;2022-12-18T03:18:04;-7.70;99.90
8408;DHT22;4241;48.452;9.216;2022-12-18T03:20:34;-7.00;99.90
8408;DHT22;4241;48.452;9.216;2022-12-18T03:23:06;-7.80;99.90
8408;DHT22;4241;48.452;9.216;2022-12-18T03:25:36;-7.80;99.90
8408;DHT22;4241;48.452;9.216;2022-12-18T03:28:06;-7.80;99.90
8408;DHT22;4241;48.452;9.216;2022-12-18T03:30:37;-8.00;99.90
8408;DHT22;4241;48.452;9.216;2022-12-18T03:33:08;-8.10;99.90
8408;DHT22;4241;48.452;9.216;2022-12-18T03:35:39;-8.10;99.90
8408;DHT22;4241;48.452;9.216;2022-12-18T03:38:06;-7.80;99.90
8408;DHT22;4241;48.452;9.216;2022-12-18T03:40:42;-8.10;99.90
8408;DHT22;4241;48.452;9.216;2022-12-18T03:43:12;-8.00;99.90
8408;DHT22;4241;48.452;9.216;2022-12-18T03:45:50;-9.30;99.90
8408;DHT22;4241;48.452;9.216;2022-12-18T03:48:20;-8.00;99.90
8408;DHT22;4241;48.452;9.216;2022-12-18T03:50:56;-8.10;99.90
8408;DHT22;4241;48.452;9.216;2022-12-18T03:53:29;-8.10;99.90
8408;DHT22;4241;48.452;9.216;2022-12-18T03:55:59;-8.30;99.90
8408;DHT22;4241;48.452;9.216;2022-12-18T03:58:27;-8.20;99.90
8408;DHT22;4241;48.452;9.216;2022-12-18T04:01:00;-8.20;99.90
8408;DHT22;4241;48.452;9.216;2022-12-18T04:03:29;-8.30;99.90
8408;DHT22;4241;48.452;9.216;2022-12-18T04:05:57;-8.40;99.90
8408;DHT22;4241;48.452;9.216;2022-12-18T04:08:25;-8.40;99.90
8408;DHT22;4241;48.452;9.216;2022-12-18T04:13:23;-8.40;99.90
8408;DHT22;4241;48.452;9.216;2022-12-18T04:15:51;-8.50;99.90
8408;DHT22;4241;48.452;9.216;2022-12-18T04:18:19;-8.60;99.90
8408;DHT22;4241;48.452;9.216;2022-12-18T04:20:46;-8.80;99.90
8408;DHT22;4241;48.452;9.216;2022-12-18T04:23:13;-8.90;99.90
8408;DHT22;4241;48.452;9.216;2022-12-18T04:25:39;-8.90;99.90
8408;DHT22;4241;48.452;9.216;2022-12-18T04:28:06;-9.00;99.90
8408;DHT22;4241;48.452;9.216;2022-12-18T04:33:00;-9.30;99.90
8408;DHT22;4241;48.452;9.216;2022-12-18T04:35:28;-9.40;99.90
8408;DHT22;4241;48.452;9.216;2022-12-18T04:40:22;-9.30;99.90
8408;DHT22;4241;48.452;9.216;2022-12-18T04:45:16;-9.20;99.90
8408;DHT22;4241;48.452;9.216;2022-12-18T04:47:43;-9.10;99.90
8408;DHT22;4241;48.452;9.216;2022-12-18T04:52:38;-9.10;99.90
8408;DHT22;4241;48.452;9.216;2022-12-18T04:55:06;-9.10;99.90
8408;DHT22;4241;48.452;9.216;2022-12-18T04:57:32;-9.00;99.90
8408;DHT22;4241;48.452;9.216;2022-12-18T04:59:59;-9.00;99.90
8408;DHT22;4241;48.452;9.216;2022-12-18T05:09:49;-8.70;99.90
8408;DHT22;4241;48.452;9.216;2022-12-18T05:19:40;-9.20;99.90
8408;DHT22;4241;48.452;9.216;2022-12-18T05:22:10;-9.40;99.90
8408;DHT22;4241;48.452;9.216;2022-12-18T05:24:36;-9.30;99.90
8408;DHT22;4241;48.452;9.216;2022-12-18T05:27:04;-9.20;99.90
8408;DHT22;4241;48.452;9.216;2022-12-18T05:31:58;-8.90;99.90
8408;DHT22;4241;48.452;9.216;2022-12-18T05:34:25;-8.80;99.90
8408;DHT22;4241;48.452;9.216;2022-12-18T05:39:19;-8.20;99.90
8408;DHT22;4241;48.452;9.216;2022-12-18T05:44:14;-8.20;99.90
8408;DHT22;4241;48.452;9.216;2022-12-18T05:51:35;-7.90;99.90
8408;DHT22;4241;48.452;9.216;2022-12-18T05:54:02;-7.80;99.90
8408;DHT22;4241;48.452;9.216;2022-12-18T05:56:29;-7.80;99.90
8408;DHT22;4241;48.452;9.216;2022-12-18T06:01:25;-7.70;99.90
8408;DHT22;4241;48.452;9.216;2022-12-18T06:06:21;-7.80;99.90
8408;DHT22;4241;48.452;9.216;2022-12-18T06:08:49;-7.80;99.90
8408;DHT22;4241;48.452;9.216;2022-12-18T06:11:18;-7.80;99.90
8408;DHT22;4241;48.452;9.216;2022-12-18T06:13:44;-7.70;99.90
8408;DHT22;4241;48.452;9.216;2022-12-18T06:23:34;-7.40;99.90
8408;DHT22;4241;48.452;9.216;2022-12-18T06:26:04;-7.40;99.90
8408;DHT22;4241;48.452;9.216;2022-12-18T06:30:59;-7.50;99.90
8408;DHT22;4241;48.452;9.216;2022-12-18T06:33:26;-7.40;99.90
8408;DHT22;4241;48.452;9.216;2022-12-18T06:36:00;-7.70;99.90
8408;DHT22;4241;48.452;9.216;2022-12-18T06:38:27;-7.30;99.90
8408;DHT22;4241;48.452;9.216;2022-12-18T06:40:54;-7.30;99.90
8408;DHT22;4241;48.452;9.216;2022-12-18T06:43:20;-7.10;99.90
8408;DHT22;4241;48.452;9.216;2022-12-18T06:48:18;-7.00;99.90
8408;DHT22;4241;48.452;9.216;2022-12-18T06:50:45;-6.90;99.90
8408;DHT22;4241;48.452;9.216;2022-12-18T06:53:13;-7.10;99.90
8408;DHT22;4241;48.452;9.216;2022-12-18T06:55:40;-6.90;99.90
8408;DHT22;4241;48.452;9.216;2022-12-18T06:58:07;-6.80;99.90
8408;DHT22;4241;48.452;9.216;2022-12-18T07:05:28;-6.70;99.90
8408;DHT22;4241;48.452;9.216;2022-12-18T07:10:23;-6.70;99.90
8408;DHT22;4241;48.452;9.216;2022-12-18T07:17:44;-5.10;99.90
8408;DHT22;4241;48.452;9.216;2022-12-18T07:20:11;-6.50;99.90
8408;DHT22;4241;48.452;9.216;2022-12-18T07:22:38;-6.40;99.90
8408;DHT22;4241;48.452;9.216;2022-12-18T07:25:06;-6.40;99.90
8408;DHT22;4241;48.452;9.216;2022-12-18T07:30:01;-6.30;99.90
8408;DHT22;4241;48.452;9.216;2022-12-18T07:32:28;-6.20;99.90
8408;DHT22;4241;48.452;9.216;2022-12-18T07:37:23;-6.10;99.90
8408;DHT22;4241;48.452;9.216;2022-12-18T07:42:17;-6.00;99.90
8408;DHT22;4241;48.452;9.216;2022-12-18T07:44:58;-6.00;99.90
8408;DHT22;4241;48.452;9.216;2022-12-18T07:47:25;-6.00;99.90
8408;DHT22;4241;48.452;9.216;2022-12-18T07:49:52;-6.00;99.90
8408;DHT22;4241;48.452;9.216;2022-12-18T07:52:19;-6.00;99.90
8408;DHT22;4241;48.452;9.216;2022-12-18T07:54:46;-6.20;99.90
8408;DHT22;4241;48.452;9.216;2022-12-18T07:57:14;-6.10;99.90
8408;DHT22;4241;48.452;9.216;2022-12-18T07:59:41;-6.10;99.90
8408;DHT22;4241;48.452;9.216;2022-12-18T08:02:09;-6.10;99.90
8408;DHT22;4241;48.452;9.216;2022-12-18T08:04:36;-6.10;99.90
8408;DHT22;4241;48.452;9.216;2022-12-18T08:09:30;-6.00;99.90
8408;DHT22;4241;48.452;9.216;2022-12-18T08:14:24;-6.10;99.90
8408;DHT22;4241;48.452;9.216;2022-12-18T08:19:20;-5.90;99.90
8408;DHT22;4241;48.452;9.216;2022-12-18T08:21:46;-5.90;99.90
8408;DHT22;4241;48.452;9.216;2022-12-18T08:24:13;-5.90;99.90
8408;DHT22;4241;48.452;9.216;2022-12-18T08:26:40;-5.90;99.90
8408;DHT22;4241;48.452;9.216;2022-12-18T08:29:08;-5.90;99.90
8408;DHT22;4241;48.452;9.216;2022-12-18T08:31:35;-5.90;99.90
8408;DHT22;4241;48.452;9.216;2022-12-18T08:36:30;-5.80;99.90
8408;DHT22;4241;48.452;9.216;2022-12-18T08:43:51;-5.60;99.90
8408;DHT22;4241;48.452;9.216;2022-12-18T08:46:37;-5.70;99.90
8408;DHT22;4241;48.452;9.216;2022-12-18T08:49:05;-5.60;99.90
8408;DHT22;4241;48.452;9.216;2022-12-18T08:51:35;-5.60;99.90
8408;DHT22;4241;48.452;9.216;2022-12-18T08:54:02;-5.60;99.90
8408;DHT22;4241;48.452;9.216;2022-12-18T08:56:29;-5.50;99.90
8408;DHT22;4241;48.452;9.216;2022-12-18T09:01:23;-5.50;99.90
8408;DHT22;4241;48.452;9.216;2022-12-18T09:03:51;-5.30;99.90
8408;DHT22;4241;48.452;9.216;2022-12-18T09:06:19;-5.30;99.90
8408;DHT22;4241;48.452;9.216;2022-12-18T09:08:48;-5.50;99.90
8408;DHT22;4241;48.452;9.216;2022-12-18T09:11:19;-5.30;99.90
8408;DHT22;4241;48.452;9.216;2022-12-18T09:18:43;-5.10;99.90
8408;DHT22;4241;48.452;9.216;2022-12-18T09:21:12;-5.10;99.90
8408;DHT22;4241;48.452;9.216;2022-12-18T09:23:39;-5.10;99.90
8408;DHT22;4241;48.452;9.216;2022-12-18T09:26:07;-5.10;99.90
8408;DHT22;4241;48.452;9.216;2022-12-18T09:28:34;-5.10;99.90
8408;DHT22;4241;48.452;9.216;2022-12-18T09:31:04;-5.10;99.90
8408;DHT22;4241;48.452;9.216;2022-12-18T09:36:01;-5.10;99.90
8408;DHT22;4241;48.452;9.216;2022-12-18T09:38:29;-5.00;99.90
8408;DHT22;4241;48.452;9.216;2022-12-18T09:40:59;-5.10;99.90
8408;DHT22;4241;48.452;9.216;2022-12-18T09:43:33;-5.30;99.90
8408;DHT22;4241;48.452;9.216;2022-12-18T09:48:34;-4.80;99.90
8408;DHT22;4241;48.452;9.216;2022-12-18T09:51:05;-4.70;99.90
8408;DHT22;4241;48.452;9.216;2022-12-18T09:53:40;-4.80;99.90
8408;DHT22;4241;48.452;9.216;2022-12-18T09:56:19;-4.70;99.90
8408;DHT22;4241;48.452;9.216;2022-12-18T09:58:53;-4.60;99.90
8408;DHT22;4241;48.452;9.216;2022-12-18T10:01:22;-4.50;99.90
8408;DHT22;4241;48.452;9.216;2022-12-18T10:03:50;-4.30;99.90
8408;DHT22;4241;48.452;9.216;2022-12-18T10:06:20;-4.10;99.90
8408;DHT22;4241;48.452;9.216;2022-12-18T10:11:37;-4.00;99.90
8408;DHT22;4241;48.452;9.216;2022-12-18T10:16:43;-3.80;99.90
8408;DHT22;4241;48.452;9.216;2022-12-18T10:19:23;-3.70;99.90
8408;DHT22;4241;48.452;9.216;2022-12-18T10:21:58;-3.60;99.90
8408;DHT22;4241;48.452;9.216;2022-12-18T10:24:33;-3.40;99.90
8408;DHT22;4241;48.452;9.216;2022-12-18T10:29:37;-3.30;99.90
8408;DHT22;4241;48.452;9.216;2022-12-18T10:32:04;-3.10;99.90
8408;DHT22;4241;48.452;9.216;2022-12-18T10:34:31;-3.10;99.90
8408;DHT22;4241;48.452;9.216;2022-12-18T10:37:01;-3.10;99.90
8408;DHT22;4241;48.452;9.216;2022-12-18T10:39:30;-2.80;99.90
8408;DHT22;4241;48.452;9.216;2022-12-18T10:42:10;-2.90;99.90
8408;DHT22;4241;48.452;9.216;2022-12-18T10:44:39;-2.90;99.90
8408;DHT22;4241;48.452;9.216;2022-12-18T10:47:11;-2.60;99.90
8408;DHT22;4241;48.452;9.216;2022-12-18T10:49:46;-2.40;99.90
8408;DHT22;4241;48.452;9.216;2022-12-18T10:52:15;-2.40;99.90
8408;DHT22;4241;48.452;9.216;2022-12-18T10:54:48;-2.20;99.90
8408;DHT22;4241;48.452;9.216;2022-12-18T10:57:19;-2.00;99.90
8408;DHT22;4241;48.452;9.216;2022-12-18T10:59:57;-1.60;99.90
8408;DHT22;4241;48.452;9.216;2022-12-18T11:02:27;-1.50;99.90
8408;DHT22;4241;48.452;9.216;2022-12-18T11:07:24;-1.00;99.90
8408;DHT22;4241;48.452;9.216;2022-12-18T11:10:16;-0.90;99.90
8408;DHT22;4241;48.452;9.216;2022-12-18T11:15:16;-0.70;99.90
8408;DHT22;4241;48.452;9.216;2022-12-18T11:17:48;-0.50;99.90
8408;DHT22;4241;48.452;9.216;2022-12-18T11:20:29;-0.40;99.90
8408;DHT22;4241;48.452;9.216;2022-12-18T11:22:59;-0.30;99.90
8408;DHT22;4241;48.452;9.216;2022-12-18T11:25:31;-0.10;99.90
8408;DHT22;4241;48.452;9.216;2022-12-18T11:30:31;0.20;99.90
8408;DHT22;4241;48.452;9.216;2022-12-18T11:38:10;1.00;99.90
8408;DHT22;4241;48.452;9.216;2022-12-18T11:40:42;0.30;99.90
8408;DHT22;4241;48.452;9.216;2022-12-18T11:43:14;0.40;99.90
8408;DHT22;4241;48.452;9.216;2022-12-18T11:45:48;0.40;99.90
8408;DHT22;4241;48.452;9.216;2022-12-18T11:48:18;0.50;99.90
8408;DHT22;4241;48.452;9.216;2022-12-18T11:50:50;0.50;99.90
8408;DHT22;4241;48.452;9.216;2022-12-18T11:53:18;0.70;99.90
8408;DHT22;4241;48.452;9.216;2022-12-18T11:55:52;0.80;99.90
8408;DHT22;4241;48.452;9.216;2022-12-18T11:58:33;0.60;99.90
8408;DHT22;4241;48.452;9.216;2022-12-18T12:01:13;0.90;99.90
8408;DHT22;4241;48.452;9.216;2022-12-18T12:04:03;1.00;99.90
8408;DHT22;4241;48.452;9.216;2022-12-18T12:06:40;1.30;99.90
8408;DHT22;4241;48.452;9.216;2022-12-18T12:09:15;0.90;99.90
8408;DHT22;4241;48.452;9.216;2022-12-18T12:11:56;0.90;99.90
8408;DHT22;4241;48.452;9.216;2022-12-18T12:14:45;0.80;99.90
8408;DHT22;4241;48.452;9.216;2022-12-18T12:17:22;0.60;99.90
8408;DHT22;4241;48.452;9.216;2022-12-18T12:19:56;0.50;99.90
8408;DHT22;4241;48.452;9.216;2022-12-18T12:22:35;0.40;99.90
8408;DHT22;4241;48.452;9.216;2022-12-18T12:25:26;0.20;99.90
8408;DHT22;4241;48.452;9.216;2022-12-18T12:28:08;0.20;99.90
8408;DHT22;4241;48.452;9.216;2022-12-18T12:30:47;0.10;99.90
8408;DHT22;4241;48.452;9.216;2022-12-18T12:33:33;0.10;99.90
8408;DHT22;4241;48.452;9.216;2022-12-18T12:36:08;-0.10;99.90
8408;DHT22;4241;48.452;9.216;2022-12-18T12:38:41;-0.10;99.90
8408;DHT22;4241;48.452;9.216;2022-12-18T12:41:12;-0.20;99.90
8408;DHT22;4241;48.452;9.216;2022-12-18T12:43:56;-0.10;99.90
8408;DHT22;4241;48.452;9.216;2022-12-18T12:48:55;-0.20;99.90
8408;DHT22;4241;48.452;9.216;2022-12-18T12:51:25;-0.50;99.90
8408;DHT22;4241;48.452;9.216;2022-12-18T12:53:54;-0.50;99.90
8408;DHT22;4241;48.452;9.216;2022-12-18T12:56:25;-0.40;99.90
8408;DHT22;4241;48.452;9.216;2022-12-18T12:59:00;-0.40;99.90
8408;DHT22;4241;48.452;9.216;2022-12-18T13:01:36;1.00;99.90
8408;DHT22;4241;48.452;9.216;2022-12-18T13:04:15;-0.40;99.90
8408;DHT22;4241;48.452;9.216;2022-12-18T13:06:50;-0.80;99.90
8408;DHT22;4241;48.452;9.216;2022-12-18T13:09:20;-0.40;99.90
8408;DHT22;4241;48.452;9.216;2022-12-18T13:11:48;-0.40;99.90
8408;DHT22;4241;48.452;9.216;2022-12-18T13:14:34;-0.40;99.90
8408;DHT22;4241;48.452;9.216;2022-12-18T13:17:26;-0.50;99.90
8408;DHT22;4241;48.452;9.216;2022-12-18T13:20:11;-0.50;99.90
8408;DHT22;4241;48.452;9.216;2022-12-18T13:28:06;-0.70;99.90
8408;DHT22;4241;48.452;9.216;2022-12-18T13:30:46;-0.70;99.90
8408;DHT22;4241;48.452;9.216;2022-12-18T13:33:38;-0.90;99.90
8408;DHT22;4241;48.452;9.216;2022-12-18T13:36:14;-0.80;99.90
8408;DHT22;4241;48.452;9.216;2022-12-18T13:38:42;-0.80;99.90
8408;DHT22;4241;48.452;9.216;2022-12-18T13:41:24;-0.90;99.90
8408;DHT22;4241;48.452;9.216;2022-12-18T13:43:53;-1.00;99.90
8408;DHT22;4241;48.452;9.216;2022-12-18T13:46:25;-1.00;99.90
8408;DHT22;4241;48.452;9.216;2022-12-18T13:49:00;-0.10;99.90
8408;DHT22;4241;48.452;9.216;2022-12-18T13:51:30;-0.90;99.90
8408;DHT22;4241;48.452;9.216;2022-12-18T13:54:00;-1.10;99.90
8408;DHT22;4241;48.452;9.216;2022-12-18T13:56:29;-1.10;99.90
8408;DHT22;4241;48.452;9.216;2022-12-18T13:59:17;-1.20;99.90
8408;DHT22;4241;48.452;9.216;2022-12-18T14:01:47;-1.30;99.90
8408;DHT22;4241;48.452;9.216;2022-12-18T14:04:20;-1.30;99.90
8408;DHT22;4241;48.452;9.216;2022-12-18T14:06:50;-1.30;99.90
8408;DHT22;4241;48.452;9.216;2022-12-18T14:09:21;-1.30;99.90
8408;DHT22;4241;48.452;9.216;2022-12-18T14:14:18;-1.50;99.90
8408;DHT22;4241;48.452;9.216;2022-12-18T14:16:46;-1.40;99.90
8408;DHT22;4241;48.452;9.216;2022-12-18T14:19:15;-1.50;99.90
8408;DHT22;4241;48.452;9.216;2022-12-18T14:21:47;-1.50;99.90
8408;DHT22;4241;48.452;9.216;2022-12-18T14:26:44;-1.50;99.90
8408;DHT22;4241;48.452;9.216;2022-12-18T14:29:23;-1.80;99.90
8408;DHT22;4241;48.452;9.216;2022-12-18T14:32:07;-1.80;99.90
8408;DHT22;4241;48.452;9.216;2022-12-18T14:34:35;-1.90;99.90
8408;DHT22;4241;48.452;9.216;2022-12-18T14:37:04;-1.90;99.90
8408;DHT22;4241;48.452;9.216;2022-12-18T14:39:32;-1.90;99.90
8408;DHT22;4241;48.452;9.216;2022-12-18T14:44:26;-2.10;99.90
8408;DHT22;4241;48.452;9.216;2022-12-18T14:49:23;-2.30;99.90
8408;DHT22;4241;48.452;9.216;2022-12-18T14:51:53;-2.30;99.90
8408;DHT22;4241;48.452;9.216;2022-12-18T14:54:23;-2.30;99.90
8408;DHT22;4241;48.452;9.216;2022-12-18T14:56:51;-2.30;99.90
8408;DHT22;4241;48.452;9.216;2022-12-18T14:59:23;-2.60;99.90
8408;DHT22;4241;48.452;9.216;2022-12-18T15:02:00;-2.60;99.90
8408;DHT22;4241;48.452;9.216;2022-12-18T15:04:30;-2.60;99.90
8408;DHT22;4241;48.452;9.216;2022-12-18T15:07:06;-2.60;99.90
8408;DHT22;4241;48.452;9.216;2022-12-18T15:09:35;-4.40;99.90
8408;DHT22;4241;48.452;9.216;2022-12-18T15:14:37;-2.90;99.90
8408;DHT22;4241;48.452;9.216;2022-12-18T15:17:13;-2.70;99.90
8408;DHT22;4241;48.452;9.216;2022-12-18T15:19:42;-2.80;99.90
8408;DHT22;4241;48.452;9.216;2022-12-18T15:22:20;-2.90;99.90
8408;DHT22;4241;48.452;9.216;2022-12-18T15:24:49;-2.90;99.90
8408;DHT22;4241;48.452;9.216;2022-12-18T15:27:22;-3.00;99.90
8408;DHT22;4241;48.452;9.216;2022-12-18T15:30:15;-3.00;99.90
8408;DHT22;4241;48.452;9.216;2022-12-18T15:32:42;-3.10;99.90
8408;DHT22;4241;48.452;9.216;2022-12-18T15:35:15;-3.10;99.90
8408;DHT22;4241;48.452;9.216;2022-12-18T15:37:42;-3.30;99.90
8408;DHT22;4241;48.452;9.216;2022-12-18T15:40:13;-3.20;99.90
8408;DHT22;4241;48.452;9.216;2022-12-18T15:42:41;-3.30;99.90
8408;DHT22;4241;48.452;9.216;2022-12-18T15:47:52;-3.40;99.90
8408;DHT22;4241;48.452;9.216;2022-12-18T15:52:48;-3.50;99.90
8408;DHT22;4241;48.452;9.216;2022-12-18T15:55:18;-3.40;99.90
8408;DHT22;4241;48.452;9.216;2022-12-18T15:58:03;-3.50;99.90
8408;DHT22;4241;48.452;9.216;2022-12-18T16:00:31;-3.50;99.90
8408;DHT22;4241;48.452;9.216;2022-12-18T16:05:26;-3.60;99.90
8408;DHT22;4241;48.452;9.216;2022-12-18T16:10:22;-5.40;99.90
8408;DHT22;4241;48.452;9.216;2022-12-18T16:12:50;-2.90;99.90
8408;DHT22;4241;48.452;9.216;2022-12-18T16:15:17;-3.80;99.90
8408;DHT22;4241;48.452;9.216;2022-12-18T16:17:45;-2.60;99.90
8408;DHT22;4241;48.452;9.216;2022-12-18T16:20:14;-3.80;99.90
8408;DHT22;4241;48.452;9.216;2022-12-18T16:22:42;-3.80;99.90
8408;DHT22;4241;48.452;9.216;2022-12-18T16:25:16;-3.80;99.90
8408;DHT22;4241;48.452;9.216;2022-12-18T16:27:45;-3.70;99.90
8408;DHT22;4241;48.452;9.216;2022-12-18T16:30:13;-3.80;99.90
8408;DHT22;4241;48.452;9.216;2022-12-18T16:32:40;-3.90;99.90
8408;DHT22;4241;48.452;9.216;2022-12-18T16:35:10;-3.90;99.90
8408;DHT22;4241;48.452;9.216;2022-12-18T16:37:37;-3.90;99.90
8408;DHT22;4241;48.452;9.216;2022-12-18T16:40:05;-3.80;99.90
8408;DHT22;4241;48.452;9.216;2022-12-18T16:42:34;-3.80;99.90
8408;DHT22;4241;48.452;9.216;2022-12-18T16:45:04;-3.80;99.90
8408;DHT22;4241;48.452;9.216;2022-12-18T16:47:31;-3.80;99.90
8408;DHT22;4241;48.452;9.216;2022-12-18T16:49:58;-3.70;99.90
8408;DHT22;4241;48.452;9.216;2022-12-18T16:54:52;-3.70;99.90
8408;DHT22;4241;48.452;9.216;2022-12-18T16:57:20;-3.80;99.90
8408;DHT22;4241;48.452;9.216;2022-12-18T17:02:17;-3.70;99.90
8408;DHT22;4241;48.452;9.216;2022-12-18T17:04:45;-3.60;99.90
8408;DHT22;4241;48.452;9.216;2022-12-18T17:07:12;-3.70;99.90
8408;DHT22;4241;48.452;9.216;2022-12-18T17:09:39;-4.30;99.90
8408;DHT22;4241;48.452;9.216;2022-12-18T17:12:06;-3.80;99.90
8408;DHT22;4241;48.452;9.216;2022-12-18T17:14:34;-3.50;99.90
8408;DHT22;4241;48.452;9.216;2022-12-18T17:17:02;-3.50;99.90
8408;DHT22;4241;48.452;9.216;2022-12-18T17:19:30;-3.50;99.90
8408;DHT22;4241;48.452;9.216;2022-12-18T17:31:46;-3.40;99.90
8408;DHT22;4241;48.452;9.216;2022-12-18T17:34:14;-3.30;99.90
8408;DHT22;4241;48.452;9.216;2022-12-18T17:36:42;-3.30;99.90
8408;DHT22;4241;48.452;9.216;2022-12-18T17:39:15;-3.30;99.90
8408;DHT22;4241;48.452;9.216;2022-12-18T17:44:10;-3.20;99.90
8408;DHT22;4241;48.452;9.216;2022-12-18T17:46:37;-3.10;99.90
8408;DHT22;4241;48.452;9.216;2022-12-18T17:51:31;-3.10;99.90
8408;DHT22;4241;48.452;9.216;2022-12-18T17:53:59;-2.90;99.90
8408;DHT22;4241;48.452;9.216;2022-12-18T17:56:26;-3.10;99.90
8408;DHT22;4241;48.452;9.216;2022-12-18T17:58:53;-3.00;99.90
8408;DHT22;4241;48.452;9.216;2022-12-18T18:01:22;-3.00;99.90
8408;DHT22;4241;48.452;9.216;2022-12-18T18:03:50;-3.10;99.90
8408;DHT22;4241;48.452;9.216;2022-12-18T18:11:14;-2.90;99.90
8408;DHT22;4241;48.452;9.216;2022-12-18T18:13:59;-3.00;99.90
8408;DHT22;4241;48.452;9.216;2022-12-18T18:18:56;-3.00;99.90
8408;DHT22;4241;48.452;9.216;2022-12-18T18:23:50;-3.00;99.90
8408;DHT22;4241;48.452;9.216;2022-12-18T18:26:18;-3.00;99.90
8408;DHT22;4241;48.452;9.216;2022-12-18T18:28:46;-3.00;99.90
8408;DHT22;4241;48.452;9.216;2022-12-18T18:31:13;-3.00;99.90
8408;DHT22;4241;48.452;9.216;2022-12-18T18:33:40;-3.00;99.90
8408;DHT22;4241;48.452;9.216;2022-12-18T18:36:09;-3.00;99.90
8408;DHT22;4241;48.452;9.216;2022-12-18T18:41:04;-2.90;99.90
8408;DHT22;4241;48.452;9.216;2022-12-18T18:46:01;-2.90;99.90
8408;DHT22;4241;48.452;9.216;2022-12-18T18:48:31;-2.90;99.90
8408;DHT22;4241;48.452;9.216;2022-12-18T18:50:59;-3.00;99.90
8408;DHT22;4241;48.452;9.216;2022-12-18T18:53:26;-3.10;99.90
8408;DHT22;4241;48.452;9.216;2022-12-18T19:00:55;-2.80;99.90
8408;DHT22;4241;48.452;9.216;2022-12-18T19:03:22;-2.90;99.90
8408;DHT22;4241;48.452;9.216;2022-12-18T19:08:19;-2.90;99.90
8408;DHT22;4241;48.452;9.216;2022-12-18T19:15:45;-2.90;99.90
8408;DHT22;4241;48.452;9.216;2022-12-18T19:18:14;-2.80;99.90
8408;DHT22;4241;48.452;9.216;2022-12-18T19:25:36;-2.80;99.90
8408;DHT22;4241;48.452;9.216;2022-12-18T19:28:04;-2.80;99.90
8408;DHT22;4241;48.452;9.216;2022-12-18T19:30:31;-2.80;99.90
8408;DHT22;4241;48.452;9.216;2022-12-18T19:35:28;-2.90;99.90
8408;DHT22;4241;48.452;9.216;2022-12-18T19:45:16;-3.30;99.90
8408;DHT22;4241;48.452;9.216;2022-12-18T19:52:39;-2.90;99.90
8408;DHT22;4241;48.452;9.216;2022-12-18T19:55:07;-2.80;99.90
8408;DHT22;4241;48.452;9.216;2022-12-18T20:04:55;-2.80;99.90
8408;DHT22;4241;48.452;9.216;2022-12-18T20:09:50;-3.20;99.90
8408;DHT22;4241;48.452;9.216;2022-12-18T20:22:06;-2.70;99.90
8408;DHT22;4241;48.452;9.216;2022-12-18T20:27:01;-2.40;99.90
8408;DHT22;4241;48.452;9.216;2022-12-18T20:29:29;-2.50;99.90
8408;DHT22;4241;48.452;9.216;2022-12-18T20:41:44;-2.20;99.90
8408;DHT22;4241;48.452;9.216;2022-12-18T20:44:14;-2.20;99.90
8408;DHT22;4241;48.452;9.216;2022-12-18T20:49:08;-2.20;99.90
8408;DHT22;4241;48.452;9.216;2022-12-18T20:51:35;-2.20;99.90
8408;DHT22;4241;48.452;9.216;2022-12-18T20:54:02;-2.20;99.90
8408;DHT22;4241;48.452;9.216;2022-12-18T20:56:29;-2.10;99.90
8408;DHT22;4241;48.452;9.216;2022-12-18T20:58:58;-2.10;99.90
8408;DHT22;4241;48.452;9.216;2022-12-18T21:01:28;-2.10;99.90
8408;DHT22;4241;48.452;9.216;2022-12-18T21:11:26;-2.00;99.90
8408;DHT22;4241;48.452;9.216;2022-12-18T21:14:12;-2.60;99.90
8408;DHT22;4241;48.452;9.216;2022-12-18T21:16:41;-1.90;99.90
8408;DHT22;4241;48.452;9.216;2022-12-18T21:19:09;-2.00;99.90
8408;DHT22;4241;48.452;9.216;2022-12-18T21:21:36;-1.90;99.90
8408;DHT22;4241;48.452;9.216;2022-12-18T21:26:30;-1.90;99.90